sensor_id;sensor_type;location;lat;lon;timestamp;P1;durP1;ratioP1;P2;durP2;ratioP2
6937;SDS011;40040;42.706;23.372;2022-07-15T00:01:32;2.88;;;2.67;;
6937;SDS011;40040;42.706;23.372;2022-07-15T00:03:59;2.55;;;2.38;;
6937;SDS011;40040;42.706;23.372;2022-07-15T00:06:27;2.88;;;2.70;;
6937;SDS011;40040;42.706;23.372;2022-07-15T00:08:55;2.90;;;2.70;;
6937;SDS011;40040;42.706;23.372;2022-07-15T00:11:22;3.10;;;2.70;;
6937;SDS011;40040;42.706;23.372;2022-07-15T00:13:49;3.30;;;2.50;;
6937;SDS011;40040;42.706;23.372;2022-07-15T00:16:16;2.53;;;2.40;;
6937;SDS011;40040;42.706;23.372;2022-07-15T00:18:43;3.33;;;2.70;;
6937;SDS011;40040;42.706;23.372;2022-07-15T00:21:10;3.05;;;2.75;;
6937;SDS011;40040;42.706;23.372;2022-07-15T00:23:38;3.67;;;3.28;;
6937;SDS011;40040;42.706;23.372;2022-07-15T00:26:06;5.45;;;3.88;;
6937;SDS011;40040;42.706;23.372;2022-07-15T00:28:33;3.88;;;3.58;;
6937;SDS011;40040;42.706;23.372;2022-07-15T00:31:00;3.85;;;3.53;;
6937;SDS011;40040;42.706;23.372;2022-07-15T00:33:27;4.80;;;4.25;;
6937;SDS011;40040;42.706;23.372;2022-07-15T00:35:54;4.45;;;3.40;;
6937;SDS011;40040;42.706;23.372;2022-07-15T00:38:21;3.50;;;3.20;;
6937;SDS011;40040;42.706;23.372;2022-07-15T00:40:49;3.70;;;3.40;;
6937;SDS011;40040;42.706;23.372;2022-07-15T00:43:18;3.28;;;3.08;;
6937;SDS011;40040;42.706;23.372;2022-07-15T00:45:45;3.50;;;3.20;;
6937;SDS011;40040;42.706;23.372;2022-07-15T00:48:12;2.72;;;2.63;;
6937;SDS011;40040;42.706;23.372;2022-07-15T00:50:39;3.10;;;2.88;;
6937;SDS011;40040;42.706;23.372;2022-07-15T00:53:07;4.15;;;2.65;;
6937;SDS011;40040;42.706;23.372;2022-07-15T00:55:40;2.95;;;2.67;;
6937;SDS011;40040;42.706;23.372;2022-07-15T00:58:10;2.92;;;2.78;;
6937;SDS011;40040;42.706;23.372;2022-07-15T01:00:44;3.17;;;2.97;;
6937;SDS011;40040;42.706;23.372;2022-07-15T01:03:11;3.47;;;2.83;;
6937;SDS011;40040;42.706;23.372;2022-07-15T01:05:39;2.70;;;2.60;;
6937;SDS011;40040;42.706;23.372;2022-07-15T01:08:08;2.80;;;2.60;;
6937;SDS011;40040;42.706;23.372;2022-07-15T01:10:35;2.97;;;2.78;;
6937;SDS011;40040;42.706;23.372;2022-07-15T01:13:02;2.72;;;2.63;;
6937;SDS011;40040;42.706;23.372;2022-07-15T01:15:30;2.75;;;2.55;;
6937;SDS011;40040;42.706;23.372;2022-07-15T01:18:00;2.55;;;2.45;;
6937;SDS011;40040;42.706;23.372;2022-07-15T01:20:28;2.63;;;2.53;;
6937;SDS011;40040;42.706;23.372;2022-07-15T01:22:57;2.92;;;2.45;;
6937;SDS011;40040;42.706;23.372;2022-07-15T01:25:25;2.53;;;2.42;;
6937;SDS011;40040;42.706;23.372;2022-07-15T01:27:52;2.72;;;2.58;;
6937;SDS011;40040;42.706;23.372;2022-07-15T01:30:19;2.85;;;2.60;;
6937;SDS011;40040;42.706;23.372;2022-07-15T01:32:46;2.90;;;2.63;;
6937;SDS011;40040;42.706;23.372;2022-07-15T01:35:13;3.03;;;2.30;;
6937;SDS011;40040;42.706;23.372;2022-07-15T01:37:40;2.90;;;2.70;;
6937;SDS011;40040;42.706;23.372;2022-07-15T01:40:08;2.92;;;2.83;;
6937;SDS011;40040;42.706;23.372;2022-07-15T01:42:36;2.45;;;2.35;;
6937;SDS011;40040;42.706;23.372;2022-07-15T01:45:03;2.55;;;2.45;;
6937;SDS011;40040;42.706;23.372;2022-07-15T01:47:31;3.08;;;2.50;;
6937;SDS011;40040;42.706;23.372;2022-07-15T01:49:58;2.58;;;2.50;;
6937;SDS011;40040;42.706;23.372;2022-07-15T01:52:25;3.25;;;2.95;;
6937;SDS011;40040;42.706;23.372;2022-07-15T01:54:52;15.48;;;7.43;;
6937;SDS011;40040;42.706;23.372;2022-07-15T01:57:20;30.00;;;12.75;;
6937;SDS011;40040;42.706;23.372;2022-07-15T01:59:47;9.43;;;5.80;;
6937;SDS011;40040;42.706;23.372;2022-07-15T02:02:14;12.95;;;6.90;;
6937;SDS011;40040;42.706;23.372;2022-07-15T02:04:41;16.67;;;7.03;;
6937;SDS011;40040;42.706;23.372;2022-07-15T02:07:08;10.18;;;5.47;;
6937;SDS011;40040;42.706;23.372;2022-07-15T02:09:35;5.47;;;4.25;;
6937;SDS011;40040;42.706;23.372;2022-07-15T02:12:02;4.97;;;3.95;;
6937;SDS011;40040;42.706;23.372;2022-07-15T02:14:31;2.80;;;2.70;;
6937;SDS011;40040;42.706;23.372;2022-07-15T02:16:59;2.63;;;2.50;;
6937;SDS011;40040;42.706;23.372;2022-07-15T02:19:25;3.60;;;3.30;;
6937;SDS011;40040;42.706;23.372;2022-07-15T02:21:52;3.47;;;3.17;;
6937;SDS011;40040;42.706;23.372;2022-07-15T02:24:19;3.67;;;3.03;;
6937;SDS011;40040;42.706;23.372;2022-07-15T02:26:46;3.30;;;2.40;;
6937;SDS011;40040;42.706;23.372;2022-07-15T02:29:13;4.60;;;2.50;;
6937;SDS011;40040;42.706;23.372;2022-07-15T02:31:41;2.70;;;2.50;;
6937;SDS011;40040;42.706;23.372;2022-07-15T02:34:08;3.05;;;2.85;;
6937;SDS011;40040;42.706;23.372;2022-07-15T02:36:35;4.70;;;3.22;;
6937;SDS011;40040;42.706;23.372;2022-07-15T02:39:02;4.10;;;3.20;;
6937;SDS011;40040;42.706;23.372;2022-07-15T02:41:30;2.50;;;2.40;;
6937;SDS011;40040;42.706;23.372;2022-07-15T02:43:56;2.85;;;2.65;;
6937;SDS011;40040;42.706;23.372;2022-07-15T02:46:24;3.05;;;2.85;;
6937;SDS011;40040;42.706;23.372;2022-07-15T02:48:52;2.65;;;2.55;;
6937;SDS011;40040;42.706;23.372;2022-07-15T02:51:19;2.78;;;2.47;;
6937;SDS011;40040;42.706;23.372;2022-07-15T02:53:46;2.50;;;2.40;;
6937;SDS011;40040;42.706;23.372;2022-07-15T02:56:13;2.13;;;2.03;;
6937;SDS011;40040;42.706;23.372;2022-07-15T02:58:40;2.33;;;2.22;;
6937;SDS011;40040;42.706;23.372;2022-07-15T03:01:06;6.28;;;2.42;;
6937;SDS011;40040;42.706;23.372;2022-07-15T03:03:34;2.38;;;2.28;;
6937;SDS011;40040;42.706;23.372;2022-07-15T03:06:02;2.10;;;2.00;;
6937;SDS011;40040;42.706;23.372;2022-07-15T03:08:30;2.20;;;2.10;;
6937;SDS011;40040;42.706;23.372;2022-07-15T03:10:57;2.55;;;2.45;;
6937;SDS011;40040;42.706;23.372;2022-07-15T03:13:23;2.72;;;2.45;;
6937;SDS011;40040;42.706;23.372;2022-07-15T03:15:50;4.20;;;2.78;;
6937;SDS011;40040;42.706;23.372;2022-07-15T03:18:17;2.70;;;2.40;;
6937;SDS011;40040;42.706;23.372;2022-07-15T03:20:44;2.30;;;2.20;;
6937;SDS011;40040;42.706;23.372;2022-07-15T03:23:13;2.70;;;2.60;;
6937;SDS011;40040;42.706;23.372;2022-07-15T03:25:41;2.92;;;2.72;;
6937;SDS011;40040;42.706;23.372;2022-07-15T03:28:08;2.80;;;2.60;;
6937;SDS011;40040;42.706;23.372;2022-07-15T03:30:34;3.22;;;2.85;;
6937;SDS011;40040;42.706;23.372;2022-07-15T03:33:01;3.05;;;2.85;;
6937;SDS011;40040;42.706;23.372;2022-07-15T03:35:28;3.72;;;3.08;;
6937;SDS011;40040;42.706;23.372;2022-07-15T03:37:56;3.03;;;2.85;;
6937;SDS011;40040;42.706;23.372;2022-07-15T03:40:24;3.42;;;2.95;;
6937;SDS011;40040;42.706;23.372;2022-07-15T03:42:51;7.13;;;3.17;;
6937;SDS011;40040;42.706;23.372;2022-07-15T03:45:17;5.65;;;3.92;;
6937;SDS011;40040;42.706;23.372;2022-07-15T03:47:44;5.18;;;3.75;;
6937;SDS011;40040;42.706;23.372;2022-07-15T03:50:11;3.97;;;3.65;;
6937;SDS011;40040;42.706;23.372;2022-07-15T03:52:38;4.65;;;3.63;;
6937;SDS011;40040;42.706;23.372;2022-07-15T03:55:06;3.50;;;3.20;;
6937;SDS011;40040;42.706;23.372;2022-07-15T03:57:37;3.75;;;3.22;;
6937;SDS011;40040;42.706;23.372;2022-07-15T04:00:04;3.42;;;3.20;;
6937;SDS011;40040;42.706;23.372;2022-07-15T04:02:32;6.80;;;3.65;;
6937;SDS011;40040;42.706;23.372;2022-07-15T04:04:59;4.53;;;3.70;;
6937;SDS011;40040;42.706;23.372;2022-07-15T04:07:26;6.53;;;4.22;;
6937;SDS011;40040;42.706;23.372;2022-07-15T04:09:53;5.85;;;3.38;;
6937;SDS011;40040;42.706;23.372;2022-07-15T04:12:19;6.93;;;3.78;;
6937;SDS011;40040;42.706;23.372;2022-07-15T04:14:48;5.32;;;4.03;;
6937;SDS011;40040;42.706;23.372;2022-07-15T04:17:15;5.15;;;3.63;;
6937;SDS011;40040;42.706;23.372;2022-07-15T04:19:41;4.80;;;3.22;;
6937;SDS011;40040;42.706;23.372;2022-07-15T04:22:08;5.30;;;4.30;;
6937;SDS011;40040;42.706;23.372;2022-07-15T04:24:35;6.22;;;4.13;;
6937;SDS011;40040;42.706;23.372;2022-07-15T04:27:02;7.10;;;5.50;;
6937;SDS011;40040;42.706;23.372;2022-07-15T04:29:29;5.20;;;4.00;;
6937;SDS011;40040;42.706;23.372;2022-07-15T04:31:57;3.67;;;3.38;;
6937;SDS011;40040;42.706;23.372;2022-07-15T04:34:24;3.42;;;3.10;;
6937;SDS011;40040;42.706;23.372;2022-07-15T04:36:51;4.18;;;3.10;;
6937;SDS011;40040;42.706;23.372;2022-07-15T04:39:17;3.70;;;3.33;;
6937;SDS011;40040;42.706;23.372;2022-07-15T04:41:44;6.78;;;4.10;;
6937;SDS011;40040;42.706;23.372;2022-07-15T04:44:11;4.40;;;4.10;;
6937;SDS011;40040;42.706;23.372;2022-07-15T04:46:38;5.20;;;3.63;;
6937;SDS011;40040;42.706;23.372;2022-07-15T04:49:06;4.65;;;4.00;;
6937;SDS011;40040;42.706;23.372;2022-07-15T04:51:59;6.00;;;3.50;;
6937;SDS011;40040;42.706;23.372;2022-07-15T04:54:26;4.15;;;3.40;;
6937;SDS011;40040;42.706;23.372;2022-07-15T04:56:52;3.97;;;3.67;;
6937;SDS011;40040;42.706;23.372;2022-07-15T04:59:19;5.00;;;4.35;;
6937;SDS011;40040;42.706;23.372;2022-07-15T05:01:46;5.90;;;3.90;;
6937;SDS011;40040;42.706;23.372;2022-07-15T05:04:14;6.85;;;4.18;;
6937;SDS011;40040;42.706;23.372;2022-07-15T05:06:41;5.03;;;3.78;;
6937;SDS011;40040;42.706;23.372;2022-07-15T05:09:08;4.10;;;3.80;;
6937;SDS011;40040;42.706;23.372;2022-07-15T05:11:35;4.22;;;3.92;;
6937;SDS011;40040;42.706;23.372;2022-07-15T05:14:02;4.75;;;4.40;;
6937;SDS011;40040;42.706;23.372;2022-07-15T05:16:29;5.05;;;4.63;;
6937;SDS011;40040;42.706;23.372;2022-07-15T05:18:56;7.88;;;4.78;;
6937;SDS011;40040;42.706;23.372;2022-07-15T05:21:24;4.93;;;4.43;;
6937;SDS011;40040;42.706;23.372;2022-07-15T05:23:51;5.03;;;4.63;;
6937;SDS011;40040;42.706;23.372;2022-07-15T05:26:18;4.93;;;4.30;;
6937;SDS011;40040;42.706;23.372;2022-07-15T05:28:45;6.60;;;4.30;;
6937;SDS011;40040;42.706;23.372;2022-07-15T05:31:12;5.22;;;4.45;;
6937;SDS011;40040;42.706;23.372;2022-07-15T05:33:39;6.55;;;5.50;;
6937;SDS011;40040;42.706;23.372;2022-07-15T05:36:10;7.07;;;4.68;;
6937;SDS011;40040;42.706;23.372;2022-07-15T05:38:39;5.10;;;4.60;;
6937;SDS011;40040;42.706;23.372;2022-07-15T05:41:06;5.35;;;4.10;;
6937;SDS011;40040;42.706;23.372;2022-07-15T05:43:33;5.03;;;4.47;;
6937;SDS011;40040;42.706;23.372;2022-07-15T05:46:00;5.88;;;4.18;;
6937;SDS011;40040;42.706;23.372;2022-07-15T05:48:27;6.03;;;4.43;;
6937;SDS011;40040;42.706;23.372;2022-07-15T05:50:54;7.15;;;4.70;;
6937;SDS011;40040;42.706;23.372;2022-07-15T05:53:20;7.63;;;4.60;;
6937;SDS011;40040;42.706;23.372;2022-07-15T05:55:49;4.78;;;4.43;;
6937;SDS011;40040;42.706;23.372;2022-07-15T05:58:17;4.90;;;4.43;;
6937;SDS011;40040;42.706;23.372;2022-07-15T06:00:44;7.82;;;5.03;;
6937;SDS011;40040;42.706;23.372;2022-07-15T06:03:11;5.45;;;4.75;;
6937;SDS011;40040;42.706;23.372;2022-07-15T06:05:38;6.82;;;4.75;;
6937;SDS011;40040;42.706;23.372;2022-07-15T06:08:05;5.85;;;4.97;;
6937;SDS011;40040;42.706;23.372;2022-07-15T06:10:32;5.00;;;4.50;;
6937;SDS011;40040;42.706;23.372;2022-07-15T06:13:01;5.82;;;4.68;;
6937;SDS011;40040;42.706;23.372;2022-07-15T06:15:28;5.20;;;4.80;;
6937;SDS011;40040;42.706;23.372;2022-07-15T06:17:56;7.15;;;5.15;;
6937;SDS011;40040;42.706;23.372;2022-07-15T06:20:23;6.10;;;5.28;;
6937;SDS011;40040;42.706;23.372;2022-07-15T06:22:50;5.25;;;4.75;;
6937;SDS011;40040;42.706;23.372;2022-07-15T06:25:17;5.97;;;5.15;;
6937;SDS011;40040;42.706;23.372;2022-07-15T06:27:43;4.90;;;4.47;;
6937;SDS011;40040;42.706;23.372;2022-07-15T06:30:12;4.65;;;4.25;;
6937;SDS011;40040;42.706;23.372;2022-07-15T06:32:39;4.55;;;4.15;;
6937;SDS011;40040;42.706;23.372;2022-07-15T06:35:07;4.82;;;4.43;;
6937;SDS011;40040;42.706;23.372;2022-07-15T06:37:34;5.15;;;4.45;;
6937;SDS011;40040;42.706;23.372;2022-07-15T06:40:01;6.65;;;4.53;;
6937;SDS011;40040;42.706;23.372;2022-07-15T06:42:28;5.00;;;4.53;;
6937;SDS011;40040;42.706;23.372;2022-07-15T06:44:55;5.85;;;4.60;;
6937;SDS011;40040;42.706;23.372;2022-07-15T06:47:23;4.47;;;4.18;;
6937;SDS011;40040;42.706;23.372;2022-07-15T06:49:50;4.80;;;4.28;;
6937;SDS011;40040;42.706;23.372;2022-07-15T06:52:17;5.90;;;3.85;;
6937;SDS011;40040;42.706;23.372;2022-07-15T06:54:44;6.30;;;4.07;;
6937;SDS011;40040;42.706;23.372;2022-07-15T06:57:11;5.82;;;3.90;;
6937;SDS011;40040;42.706;23.372;2022-07-15T06:59:39;5.30;;;4.32;;
6937;SDS011;40040;42.706;23.372;2022-07-15T07:02:06;4.70;;;4.30;;
6937;SDS011;40040;42.706;23.372;2022-07-15T07:04:34;6.63;;;4.07;;
6937;SDS011;40040;42.706;23.372;2022-07-15T07:07:01;4.72;;;4.32;;
6937;SDS011;40040;42.706;23.372;2022-07-15T07:09:28;4.95;;;4.30;;
6937;SDS011;40040;42.706;23.372;2022-07-15T07:11:55;5.20;;;4.50;;
6937;SDS011;40040;42.706;23.372;2022-07-15T07:14:22;8.65;;;4.53;;
6937;SDS011;40040;42.706;23.372;2022-07-15T07:16:49;4.90;;;4.20;;
6937;SDS011;40040;42.706;23.372;2022-07-15T07:19:16;4.68;;;4.28;;
6937;SDS011;40040;42.706;23.372;2022-07-15T07:21:45;5.95;;;4.20;;
6937;SDS011;40040;42.706;23.372;2022-07-15T07:24:11;4.97;;;4.10;;
6937;SDS011;40040;42.706;23.372;2022-07-15T07:26:38;5.57;;;4.45;;
6937;SDS011;40040;42.706;23.372;2022-07-15T07:29:05;4.53;;;3.85;;
6937;SDS011;40040;42.706;23.372;2022-07-15T07:31:32;6.43;;;4.13;;
6937;SDS011;40040;42.706;23.372;2022-07-15T07:33:59;7.10;;;3.88;;
6937;SDS011;40040;42.706;23.372;2022-07-15T07:36:26;6.78;;;3.70;;
6937;SDS011;40040;42.706;23.372;2022-07-15T07:38:55;6.32;;;3.92;;
6937;SDS011;40040;42.706;23.372;2022-07-15T07:41:22;4.25;;;3.88;;
6937;SDS011;40040;42.706;23.372;2022-07-15T07:43:49;4.35;;;3.67;;
6937;SDS011;40040;42.706;23.372;2022-07-15T07:46:16;6.38;;;3.90;;
6937;SDS011;40040;42.706;23.372;2022-07-15T07:48:43;4.90;;;3.72;;
6937;SDS011;40040;42.706;23.372;2022-07-15T07:51:10;7.30;;;4.68;;
6937;SDS011;40040;42.706;23.372;2022-07-15T07:53:37;4.25;;;3.83;;
6937;SDS011;40040;42.706;23.372;2022-07-15T07:56:06;4.20;;;3.83;;
6937;SDS011;40040;42.706;23.372;2022-07-15T07:58:33;4.00;;;3.70;;
6937;SDS011;40040;42.706;23.372;2022-07-15T08:01:00;4.47;;;3.78;;
6937;SDS011;40040;42.706;23.372;2022-07-15T08:03:27;4.10;;;3.58;;
6937;SDS011;40040;42.706;23.372;2022-07-15T08:05:54;3.63;;;3.33;;
6937;SDS011;40040;42.706;23.372;2022-07-15T08:08:22;3.35;;;3.05;;
6937;SDS011;40040;42.706;23.372;2022-07-15T08:10:51;3.70;;;2.83;;
6937;SDS011;40040;42.706;23.372;2022-07-15T08:13:21;6.65;;;3.13;;
6937;SDS011;40040;42.706;23.372;2022-07-15T08:15:49;3.25;;;3.15;;
6937;SDS011;40040;42.706;23.372;2022-07-15T08:18:16;7.82;;;3.33;;
6937;SDS011;40040;42.706;23.372;2022-07-15T08:20:44;4.00;;;3.20;;
6937;SDS011;40040;42.706;23.372;2022-07-15T08:23:11;2.95;;;2.75;;
6937;SDS011;40040;42.706;23.372;2022-07-15T08:25:39;3.20;;;2.95;;
6937;SDS011;40040;42.706;23.372;2022-07-15T08:28:06;4.00;;;2.90;;
6937;SDS011;40040;42.706;23.372;2022-07-15T08:30:35;2.97;;;2.78;;
6937;SDS011;40040;42.706;23.372;2022-07-15T08:33:02;5.72;;;2.60;;
6937;SDS011;40040;42.706;23.372;2022-07-15T08:35:29;2.90;;;2.80;;
6937;SDS011;40040;42.706;23.372;2022-07-15T08:37:56;2.75;;;2.50;;
6937;SDS011;40040;42.706;23.372;2022-07-15T08:40:23;3.55;;;2.50;;
6937;SDS011;40040;42.706;23.372;2022-07-15T08:42:52;3.75;;;2.78;;
6937;SDS011;40040;42.706;23.372;2022-07-15T08:45:19;2.67;;;2.40;;
6937;SDS011;40040;42.706;23.372;2022-07-15T08:47:47;2.25;;;2.13;;
6937;SDS011;40040;42.706;23.372;2022-07-15T08:50:15;2.10;;;2.00;;
6937;SDS011;40040;42.706;23.372;2022-07-15T08:52:44;2.45;;;2.20;;
6937;SDS011;40040;42.706;23.372;2022-07-15T08:55:13;2.75;;;2.17;;
6937;SDS011;40040;42.706;23.372;2022-07-15T08:57:44;2.65;;;2.40;;
6937;SDS011;40040;42.706;23.372;2022-07-15T09:00:12;2.78;;;2.22;;
6937;SDS011;40040;42.706;23.372;2022-07-15T09:02:39;7.10;;;2.40;;
6937;SDS011;40040;42.706;23.372;2022-07-15T09:05:20;2.42;;;2.30;;
6937;SDS011;40040;42.706;23.372;2022-07-15T09:07:49;2.25;;;2.15;;
6937;SDS011;40040;42.706;23.372;2022-07-15T09:10:18;2.30;;;2.20;;
6937;SDS011;40040;42.706;23.372;2022-07-15T09:12:48;3.55;;;2.28;;
6937;SDS011;40040;42.706;23.372;2022-07-15T09:15:28;2.30;;;2.20;;
6937;SDS011;40040;42.706;23.372;2022-07-15T09:18:09;2.50;;;2.30;;
6937;SDS011;40040;42.706;23.372;2022-07-15T09:20:39;2.50;;;2.30;;
6937;SDS011;40040;42.706;23.372;2022-07-15T09:23:08;2.17;;;2.08;;
6937;SDS011;40040;42.706;23.372;2022-07-15T09:25:36;2.38;;;2.17;;
6937;SDS011;40040;42.706;23.372;2022-07-15T09:28:05;2.50;;;2.30;;
6937;SDS011;40040;42.706;23.372;2022-07-15T09:30:33;2.20;;;2.20;;
6937;SDS011;40040;42.706;23.372;2022-07-15T09:33:16;2.53;;;2.40;;
6937;SDS011;40040;42.706;23.372;2022-07-15T09:36:09;2.85;;;2.50;;
6937;SDS011;40040;42.706;23.372;2022-07-15T09:38:42;4.50;;;2.70;;
6937;SDS011;40040;42.706;23.372;2022-07-15T09:41:14;3.47;;;2.40;;
6937;SDS011;40040;42.706;23.372;2022-07-15T09:43:51;2.50;;;2.40;;
6937;SDS011;40040;42.706;23.372;2022-07-15T09:46:20;2.95;;;2.20;;
6937;SDS011;40040;42.706;23.372;2022-07-15T09:48:49;3.72;;;2.25;;
6937;SDS011;40040;42.706;23.372;2022-07-15T09:51:19;5.22;;;2.83;;
6937;SDS011;40040;42.706;23.372;2022-07-15T09:53:47;2.42;;;2.28;;
6937;SDS011;40040;42.706;23.372;2022-07-15T09:56:16;5.22;;;2.40;;
6937;SDS011;40040;42.706;23.372;2022-07-15T09:58:51;2.38;;;2.13;;
6937;SDS011;40040;42.706;23.372;2022-07-15T10:01:18;4.15;;;2.30;;
6937;SDS011;40040;42.706;23.372;2022-07-15T10:03:45;2.20;;;2.10;;
6937;SDS011;40040;42.706;23.372;2022-07-15T10:06:14;2.55;;;2.45;;
6937;SDS011;40040;42.706;23.372;2022-07-15T10:08:45;2.90;;;2.13;;
6937;SDS011;40040;42.706;23.372;2022-07-15T10:11:13;3.17;;;2.40;;
6937;SDS011;40040;42.706;23.372;2022-07-15T10:13:47;4.00;;;2.60;;
6937;SDS011;40040;42.706;23.372;2022-07-15T10:16:43;2.47;;;2.38;;
6937;SDS011;40040;42.706;23.372;2022-07-15T10:19:32;4.43;;;2.40;;
6937;SDS011;40040;42.706;23.372;2022-07-15T10:22:24;2.60;;;2.40;;
6937;SDS011;40040;42.706;23.372;2022-07-15T10:25:07;3.30;;;2.55;;
6937;SDS011;40040;42.706;23.372;2022-07-15T10:27:47;2.45;;;2.25;;
6937;SDS011;40040;42.706;23.372;2022-07-15T10:30:21;2.40;;;2.30;;
6937;SDS011;40040;42.706;23.372;2022-07-15T10:33:08;3.58;;;2.17;;
6937;SDS011;40040;42.706;23.372;2022-07-15T10:35:39;6.22;;;2.50;;
6937;SDS011;40040;42.706;23.372;2022-07-15T10:38:19;2.30;;;2.10;;
6937;SDS011;40040;42.706;23.372;2022-07-15T10:40:58;2.92;;;2.10;;
6937;SDS011;40040;42.706;23.372;2022-07-15T10:46:24;2.72;;;2.42;;
6937;SDS011;40040;42.706;23.372;2022-07-15T10:48:53;2.50;;;2.22;;
6937;SDS011;40040;42.706;23.372;2022-07-15T10:52:11;2.88;;;2.17;;
6937;SDS011;40040;42.706;23.372;2022-07-15T10:54:41;2.80;;;2.20;;
6937;SDS011;40040;42.706;23.372;2022-07-15T10:57:11;2.13;;;2.03;;
6937;SDS011;40040;42.706;23.372;2022-07-15T10:59:47;1.95;;;1.95;;
6937;SDS011;40040;42.706;23.372;2022-07-15T11:02:19;2.72;;;1.85;;
6937;SDS011;40040;42.706;23.372;2022-07-15T11:04:48;1.65;;;1.63;;
6937;SDS011;40040;42.706;23.372;2022-07-15T11:07:20;2.30;;;2.20;;
6937;SDS011;40040;42.706;23.372;2022-07-15T11:09:52;2.25;;;2.13;;
6937;SDS011;40040;42.706;23.372;2022-07-15T11:12:22;2.65;;;2.55;;
6937;SDS011;40040;42.706;23.372;2022-07-15T11:14:51;2.78;;;2.58;;
6937;SDS011;40040;42.706;23.372;2022-07-15T11:17:21;2.33;;;2.20;;
6937;SDS011;40040;42.706;23.372;2022-07-15T11:19:52;2.40;;;2.30;;
6937;SDS011;40040;42.706;23.372;2022-07-15T11:22:21;2.53;;;2.42;;
6937;SDS011;40040;42.706;23.372;2022-07-15T11:24:49;3.33;;;2.30;;
6937;SDS011;40040;42.706;23.372;2022-07-15T11:27:17;2.80;;;2.70;;
6937;SDS011;40040;42.706;23.372;2022-07-15T11:29:47;3.05;;;2.60;;
6937;SDS011;40040;42.706;23.372;2022-07-15T11:32:16;2.83;;;2.63;;
6937;SDS011;40040;42.706;23.372;2022-07-15T11:34:45;2.72;;;2.60;;
6937;SDS011;40040;42.706;23.372;2022-07-15T11:37:17;3.33;;;3.03;;
6937;SDS011;40040;42.706;23.372;2022-07-15T11:39:48;2.70;;;2.60;;
6937;SDS011;40040;42.706;23.372;2022-07-15T11:42:17;2.78;;;2.67;;
6937;SDS011;40040;42.706;23.372;2022-07-15T11:45:04;2.90;;;2.70;;
6937;SDS011;40040;42.706;23.372;2022-07-15T11:47:32;3.13;;;2.92;;
6937;SDS011;40040;42.706;23.372;2022-07-15T11:49:59;2.88;;;2.67;;
6937;SDS011;40040;42.706;23.372;2022-07-15T11:52:27;2.60;;;2.47;;
6937;SDS011;40040;42.706;23.372;2022-07-15T11:54:53;4.68;;;2.70;;
6937;SDS011;40040;42.706;23.372;2022-07-15T11:57:21;2.88;;;2.78;;
6937;SDS011;40040;42.706;23.372;2022-07-15T11:59:57;3.92;;;2.65;;
6937;SDS011;40040;42.706;23.372;2022-07-15T12:02:26;2.97;;;2.78;;
6937;SDS011;40040;42.706;23.372;2022-07-15T12:05:00;3.05;;;2.85;;
6937;SDS011;40040;42.706;23.372;2022-07-15T12:07:38;3.58;;;3.13;;
6937;SDS011;40040;42.706;23.372;2022-07-15T12:10:06;3.85;;;3.50;;
6937;SDS011;40040;42.706;23.372;2022-07-15T12:12:34;3.78;;;3.30;;
6937;SDS011;40040;42.706;23.372;2022-07-15T12:15:06;4.78;;;3.40;;
6937;SDS011;40040;42.706;23.372;2022-07-15T12:17:35;3.50;;;3.13;;
6937;SDS011;40040;42.706;23.372;2022-07-15T12:20:02;3.40;;;3.10;;
6937;SDS011;40040;42.706;23.372;2022-07-15T12:22:31;3.35;;;3.15;;
6937;SDS011;40040;42.706;23.372;2022-07-15T12:24:58;3.75;;;3.55;;
6937;SDS011;40040;42.706;23.372;2022-07-15T12:27:32;3.75;;;3.45;;
6937;SDS011;40040;42.706;23.372;2022-07-15T12:30:00;3.53;;;3.33;;
6937;SDS011;40040;42.706;23.372;2022-07-15T12:32:28;3.70;;;3.35;;
6937;SDS011;40040;42.706;23.372;2022-07-15T12:34:57;3.50;;;3.30;;
6937;SDS011;40040;42.706;23.372;2022-07-15T12:37:25;3.90;;;3.60;;
6937;SDS011;40040;42.706;23.372;2022-07-15T12:39:55;3.70;;;3.40;;
6937;SDS011;40040;42.706;23.372;2022-07-15T12:42:23;3.78;;;3.58;;
6937;SDS011;40040;42.706;23.372;2022-07-15T12:45:10;3.78;;;3.53;;
6937;SDS011;40040;42.706;23.372;2022-07-15T12:50:29;4.07;;;3.67;;
6937;SDS011;40040;42.706;23.372;2022-07-15T12:52:57;4.60;;;4.18;;
6937;SDS011;40040;42.706;23.372;2022-07-15T12:55:24;4.20;;;3.90;;
6937;SDS011;40040;42.706;23.372;2022-07-15T12:58:02;4.55;;;4.07;;
6937;SDS011;40040;42.706;23.372;2022-07-15T13:00:30;4.60;;;4.30;;
6937;SDS011;40040;42.706;23.372;2022-07-15T13:02:59;4.38;;;3.97;;
6937;SDS011;40040;42.706;23.372;2022-07-15T13:05:30;4.47;;;4.18;;
6937;SDS011;40040;42.706;23.372;2022-07-15T13:07:59;3.75;;;3.53;;
6937;SDS011;40040;42.706;23.372;2022-07-15T13:10:27;6.00;;;3.88;;
6937;SDS011;40040;42.706;23.372;2022-07-15T13:12:55;4.00;;;3.70;;
6937;SDS011;40040;42.706;23.372;2022-07-15T13:15:22;3.95;;;3.25;;
6937;SDS011;40040;42.706;23.372;2022-07-15T13:17:48;4.15;;;3.85;;
6937;SDS011;40040;42.706;23.372;2022-07-15T13:20:15;3.80;;;3.60;;
6937;SDS011;40040;42.706;23.372;2022-07-15T13:22:43;4.00;;;3.70;;
6937;SDS011;40040;42.706;23.372;2022-07-15T13:25:11;3.78;;;3.50;;
6937;SDS011;40040;42.706;23.372;2022-07-15T13:27:38;4.35;;;3.97;;
6937;SDS011;40040;42.706;23.372;2022-07-15T13:30:06;4.38;;;4.05;;
6937;SDS011;40040;42.706;23.372;2022-07-15T13:32:34;4.50;;;4.20;;
6937;SDS011;40040;42.706;23.372;2022-07-15T13:35:00;4.40;;;4.00;;
6937;SDS011;40040;42.706;23.372;2022-07-15T13:37:28;6.15;;;4.32;;
6937;SDS011;40040;42.706;23.372;2022-07-15T13:39:56;4.32;;;3.75;;
6937;SDS011;40040;42.706;23.372;2022-07-15T13:42:23;4.25;;;3.97;;
6937;SDS011;40040;42.706;23.372;2022-07-15T13:44:50;4.55;;;4.15;;
6937;SDS011;40040;42.706;23.372;2022-07-15T13:47:17;4.43;;;4.03;;
6937;SDS011;40040;42.706;23.372;2022-07-15T13:49:44;4.30;;;3.92;;
6937;SDS011;40040;42.706;23.372;2022-07-15T13:52:29;4.60;;;4.30;;
6937;SDS011;40040;42.706;23.372;2022-07-15T13:54:57;4.13;;;3.92;;
6937;SDS011;40040;42.706;23.372;2022-07-15T13:57:24;4.85;;;4.13;;
6937;SDS011;40040;42.706;23.372;2022-07-15T13:59:51;4.32;;;3.92;;
6937;SDS011;40040;42.706;23.372;2022-07-15T14:02:19;4.72;;;4.25;;
6937;SDS011;40040;42.706;23.372;2022-07-15T14:04:46;5.70;;;4.10;;
6937;SDS011;40040;42.706;23.372;2022-07-15T14:07:13;5.72;;;3.75;;
6937;SDS011;40040;42.706;23.372;2022-07-15T14:09:40;3.90;;;3.60;;
6937;SDS011;40040;42.706;23.372;2022-07-15T14:12:08;3.90;;;3.63;;
6937;SDS011;40040;42.706;23.372;2022-07-15T14:14:35;4.43;;;4.03;;
6937;SDS011;40040;42.706;23.372;2022-07-15T14:17:02;5.00;;;3.95;;
6937;SDS011;40040;42.706;23.372;2022-07-15T14:19:29;5.40;;;3.58;;
6937;SDS011;40040;42.706;23.372;2022-07-15T14:21:56;3.95;;;3.72;;
6937;SDS011;40040;42.706;23.372;2022-07-15T14:24:23;4.22;;;3.60;;
6937;SDS011;40040;42.706;23.372;2022-07-15T14:26:51;6.20;;;5.15;;
6937;SDS011;40040;42.706;23.372;2022-07-15T14:29:19;3.92;;;3.72;;
6937;SDS011;40040;42.706;23.372;2022-07-15T14:31:46;3.20;;;3.00;;
6937;SDS011;40040;42.706;23.372;2022-07-15T14:34:13;3.65;;;3.35;;
6937;SDS011;40040;42.706;23.372;2022-07-15T14:36:40;3.65;;;3.42;;
6937;SDS011;40040;42.706;23.372;2022-07-15T14:39:07;3.88;;;3.58;;
6937;SDS011;40040;42.706;23.372;2022-07-15T14:41:34;3.55;;;3.25;;
6937;SDS011;40040;42.706;23.372;2022-07-15T14:44:01;3.72;;;3.53;;
6937;SDS011;40040;42.706;23.372;2022-07-15T14:46:29;3.67;;;3.45;;
6937;SDS011;40040;42.706;23.372;2022-07-15T14:48:56;3.25;;;3.00;;
6937;SDS011;40040;42.706;23.372;2022-07-15T14:51:23;4.10;;;2.83;;
6937;SDS011;40040;42.706;23.372;2022-07-15T14:53:50;3.80;;;3.50;;
6937;SDS011;40040;42.706;23.372;2022-07-15T14:56:17;3.45;;;3.10;;
6937;SDS011;40040;42.706;23.372;2022-07-15T14:58:44;3.50;;;3.20;;
6937;SDS011;40040;42.706;23.372;2022-07-15T15:01:11;3.55;;;3.33;;
6937;SDS011;40040;42.706;23.372;2022-07-15T15:03:39;3.35;;;3.15;;